Time;durP1;ratioP1;P1;durP2;ratioP2;P2;SDS_P1;SDS_P2;PMS_P1;PMS_P2;Temp;Humidity;BMP_temperature;BMP_pressure;BME280_temperature;BME280_humidity;BME280_pressure;Samples;Min_cycle;Max_cycle;Signal;HPM_P1;HPM_P2
2024/01/26 00:05:36;;;;;;;167.95;158.20;;;6.70;99.90;;;;;;12536059;28;20048;-81
2024/01/26 00:11:39;;;;;;;177.05;165.80;;;6.70;99.90;;;;;;12514237;28;20126;-79
2024/01/26 00:17:41;;;;;;;171.50;160.52;;;6.70;99.90;;;;;;12539138;28;20055;-80
2024/01/26 00:23:43;;;;;;;161.70;152.00;;;6.70;99.90;;;;;;12526798;28;20052;-81
2024/01/26 00:29:45;;;;;;;163.75;153.90;;;6.80;99.90;;;;;;12514490;28;20052;-80
2024/01/26 00:35:47;;;;;;;170.35;159.85;;;6.90;99.90;;;;;;12520956;28;20048;-81
2024/01/26 00:41:49;;;;;;;185.05;173.73;;;6.90;99.90;;;;;;12535924;28;20125;-80
2024/01/26 00:47:51;;;;;;;193.45;182.25;;;6.90;99.90;;;;;;12524453;28;20048;-80
2024/01/26 00:53:53;;;;;;;199.52;187.88;;;7.00;99.90;;;;;;12538073;28;20128;-82
2024/01/26 00:59:55;;;;;;;206.77;194.75;;;6.90;99.90;;;;;;12529374;28;20056;-80
2024/01/26 01:05:57;;;;;;;210.27;197.88;;;6.90;99.90;;;;;;12502042;28;20061;-80
2024/01/26 01:11:59;;;;;;;201.13;189.32;;;6.90;99.90;;;;;;12523699;28;20046;-80
2024/01/26 01:18:02;;;;;;;199.85;187.98;;;7.00;99.90;;;;;;12500585;28;20054;-88
2024/01/26 01:24:04;;;;;;;208.10;196.23;;;7.00;99.90;;;;;;12500990;28;20061;-88
2024/01/26 01:30:07;;;;;;;198.90;187.80;;;7.10;99.90;;;;;;12492408;28;20106;-87
2024/01/26 01:36:09;;;;;;;188.88;177.93;;;7.10;99.90;;;;;;12503863;28;20137;-87
2024/01/26 01:42:14;;;;;;;188.23;177.43;;;7.10;99.90;;;;;;12495344;28;20208;-87
2024/01/26 01:48:16;;;;;;;185.88;175.35;;;7.20;99.90;;;;;;12495888;28;20049;-86
2024/01/26 01:54:19;;;;;;;187.40;176.55;;;7.20;99.90;;;;;;12565212;28;20080;-87
2024/01/26 02:00:21;;;;;;;185.13;174.35;;;7.20;99.90;;;;;;12600542;28;20051;-86
2024/01/26 02:06:23;;;;;;;186.43;175.48;;;7.30;99.90;;;;;;12616299;28;20053;-87
2024/01/26 02:12:25;;;;;;;173.82;163.05;;;7.30;99.90;;;;;;12630306;28;20052;-86
2024/01/26 02:18:27;;;;;;;187.75;176.98;;;7.30;99.90;;;;;;12596666;28;20052;-87
2024/01/26 02:24:29;;;;;;;186.85;175.85;;;7.30;99.90;;;;;;12591884;28;20045;-86
2024/01/26 02:30:35;;;;;;;185.27;174.25;;;7.40;99.90;;;;;;12582724;28;20048;-87
2024/01/26 02:36:37;;;;;;;173.70;163.50;;;7.30;99.90;;;;;;12591689;28;20052;-87
2024/01/26 02:42:39;;;;;;;170.48;160.60;;;7.40;99.90;;;;;;12588321;28;20048;-86
2024/01/26 02:48:41;;;;;;;175.90;165.63;;;7.50;99.90;;;;;;12580854;28;20056;-85
2024/01/26 02:54:43;;;;;;;172.23;162.27;;;7.50;99.90;;;;;;12597850;28;20052;-87
2024/01/26 03:00:45;;;;;;;165.57;155.90;;;7.50;99.90;;;;;;12626839;28;20059;-88
2024/01/26 03:06:47;;;;;;;169.93;160.18;;;7.50;99.90;;;;;;12622782;28;20066;-88
2024/01/26 03:12:49;;;;;;;160.68;151.27;;;7.50;99.90;;;;;;12602212;28;20083;-88
2024/01/26 03:18:52;;;;;;;168.63;158.55;;;7.60;99.90;;;;;;12623977;28;20174;-88
2024/01/26 03:24:54;;;;;;;170.45;160.15;;;7.60;99.90;;;;;;12604020;28;20090;-87
2024/01/26 03:30:56;;;;;;;172.88;162.18;;;7.70;99.90;;;;;;12604475;28;20364;-87
2024/01/26 03:36:58;;;;;;;179.90;168.93;;;7.70;99.90;;;;;;12619360;28;20055;-86
2024/01/26 03:43:00;;;;;;;176.88;166.13;;;7.80;99.90;;;;;;12623175;28;20147;-87
2024/01/26 03:49:03;;;;;;;181.68;170.55;;;7.80;99.90;;;;;;12609872;28;20052;-85
2024/01/26 03:55:06;;;;;;;186.00;174.07;;;7.80;99.90;;;;;;12587288;28;20063;-86
2024/01/26 04:01:09;;;;;;;188.33;176.23;;;7.90;99.90;;;;;;12606869;28;20057;-87
2024/01/26 04:07:11;;;;;;;185.00;173.15;;;7.90;99.90;;;;;;12581683;28;20112;-87
2024/01/26 04:13:13;;;;;;;178.63;166.88;;;7.90;99.90;;;;;;12575902;28;20135;-85
2024/01/26 04:19:15;;;;;;;174.02;162.07;;;8.00;99.90;;;;;;12580341;28;20045;-86
2024/01/26 04:25:17;;;;;;;171.98;160.38;;;8.10;99.90;;;;;;12577087;28;20048;-87
2024/01/26 04:31:22;;;;;;;178.05;166.27;;;8.20;99.90;;;;;;12602726;28;20072;-86
2024/01/26 04:37:24;;;;;;;;;;;8.20;99.90;;;;;;12594020;28;20071;-87
2024/01/26 04:43:26;;;;;;;174.30;162.50;;;8.30;99.90;;;;;;12578031;28;19931;-81
2024/01/26 04:49:28;;;;;;;171.50;159.88;;;8.30;99.90;;;;;;12560731;28;20481;-81
2024/01/26 04:55:30;;;;;;;157.70;147.20;;;8.30;99.90;;;;;;12588299;28;20415;-82
2024/01/26 05:01:31;;;;;;;164.20;152.52;;;8.40;99.90;;;;;;12607034;28;20044;-81
2024/01/26 05:07:34;;;;;;;164.68;152.95;;;8.40;99.90;;;;;;12607437;28;20109;-81
2024/01/26 05:13:35;;;;;;;168.77;157.07;;;8.40;99.90;;;;;;12623115;28;20101;-81
2024/01/26 05:19:37;;;;;;;162.35;151.25;;;8.50;99.90;;;;;;12622562;28;20126;-82
2024/01/26 05:25:40;;;;;;;161.10;149.77;;;8.50;99.90;;;;;;12599821;28;20095;-82
2024/01/26 05:31:42;;;;;;;157.35;146.23;;;8.50;99.90;;;;;;12623105;28;20055;-80
2024/01/26 05:37:44;;;;;;;159.55;148.32;;;8.60;99.90;;;;;;12619238;28;20060;-82
2024/01/26 05:43:46;;;;;;;166.40;154.65;;;8.60;99.90;;;;;;12598881;28;20056;-81
2024/01/26 05:49:50;;;;;;;155.15;144.25;;;8.60;99.90;;;;;;12602894;28;20091;-81
2024/01/26 05:55:52;;;;;;;162.35;151.45;;;8.50;99.90;;;;;;12600340;28;20110;-88
2024/01/26 06:01:54;;;;;;;158.85;148.02;;;8.60;99.90;;;;;;12613741;28;20071;-88
2024/01/26 06:07:56;;;;;;;147.05;137.02;;;8.60;99.90;;;;;;12607704;28;20051;-87
2024/01/26 06:13:58;;;;;;;137.15;128.13;;;8.70;99.90;;;;;;12589477;28;20059;-87
2024/01/26 06:20:05;;;;;;;132.98;124.32;;;8.70;99.90;;;;;;12583829;28;20049;-86
2024/01/26 06:26:07;;;;;;;143.80;134.43;;;8.80;99.90;;;;;;12608041;28;20055;-87
2024/01/26 06:32:09;;;;;;;122.47;114.63;;;8.80;99.90;;;;;;12598122;28;20048;-86
2024/01/26 06:38:11;;;;;;;125.07;117.32;;;8.90;99.90;;;;;;12607427;28;20063;-86
2024/01/26 06:44:14;;;;;;;129.00;120.80;;;9.00;99.90;;;;;;12610517;28;20052;-86
2024/01/26 06:50:16;;;;;;;124.03;116.20;;;9.00;99.90;;;;;;12604485;28;20125;-84
2024/01/26 06:56:18;;;;;;;124.93;117.10;;;9.10;99.90;;;;;;12597408;28;20056;-85
2024/01/26 07:02:20;;;;;;;119.03;111.68;;;9.10;99.90;;;;;;12610953;28;20052;-86
2024/01/26 07:08:22;;;;;;;119.90;112.57;;;9.10;99.90;;;;;;12619103;28;20170;-80
2024/01/26 07:14:24;;;;;;;123.10;115.63;;;9.10;99.90;;;;;;12624198;28;20052;-81
2024/01/26 07:20:25;;;;;;;121.80;114.47;;;9.10;99.90;;;;;;12609478;28;20053;-83
2024/01/26 07:26:27;;;;;;;123.78;116.43;;;9.00;99.90;;;;;;12602225;28;20044;-81
2024/01/26 07:32:29;;;;;;;123.32;116.03;;;9.20;99.90;;;;;;12619226;28;20082;-81
2024/01/26 07:38:32;;;;;;;120.03;112.72;;;9.10;99.90;;;;;;12613166;28;20557;-81
2024/01/26 07:44:33;;;;;;;117.90;110.75;;;9.30;99.90;;;;;;12622782;28;20052;-83
2024/01/26 07:50:35;;;;;;;128.10;120.40;;;9.40;99.90;;;;;;12632095;28;20534;-81
2024/01/26 07:56:37;;;;;;;132.73;124.68;;;9.30;99.90;;;;;;12624115;28;20043;-83
2024/01/26 08:02:39;;;;;;;131.23;123.47;;;9.30;99.90;;;;;;12614438;28;20080;-82
2024/01/26 08:08:42;;;;;;;135.80;127.95;;;9.40;99.90;;;;;;12628663;28;20741;-81
2024/01/26 08:14:45;;;;;;;144.03;135.37;;;9.40;99.90;;;;;;12614856;28;20081;-79
2024/01/26 08:20:47;;;;;;;138.60;130.10;;;9.40;99.90;;;;;;12628910;28;20286;-82
2024/01/26 08:26:50;;;;;;;137.43;129.20;;;9.40;99.90;;;;;;12625804;28;20052;-80
2024/01/26 08:32:52;;;;;;;140.68;132.27;;;9.20;99.90;;;;;;12613299;28;20040;-82
2024/01/26 08:38:56;;;;;;;132.73;124.90;;;9.20;99.90;;;;;;12612902;28;20056;-80
2024/01/26 08:44:58;;;;;;;127.10;119.72;;;9.20;99.90;;;;;;12615104;28;20515;-80
2024/01/26 08:51:00;;;;;;;145.10;136.60;;;9.30;99.90;;;;;;12606556;28;20122;-80
2024/01/26 08:57:03;;;;;;;141.80;133.60;;;9.30;99.90;;;;;;12629520;28;20052;-81
2024/01/26 09:03:05;;;;;;;143.02;134.73;;;9.20;99.90;;;;;;12610908;28;20056;-81
2024/01/26 09:09:06;;;;;;;136.98;129.15;;;9.20;99.90;;;;;;12590670;28;20052;-81
2024/01/26 09:15:09;;;;;;;148.10;139.60;;;9.20;99.90;;;;;;12601256;28;20048;-80
2024/01/26 09:21:11;;;;;;;149.85;141.32;;;9.10;99.90;;;;;;12618621;28;20086;-82
2024/01/26 09:27:13;;;;;;;146.98;138.75;;;9.10;99.90;;;;;;12628226;28;20066;-80
2024/01/26 09:33:15;;;;;;;147.52;139.23;;;9.10;99.90;;;;;;12599369;28;20481;-82
2024/01/26 09:39:17;;;;;;;145.25;137.15;;;9.20;99.90;;;;;;12592520;28;20063;-80
2024/01/26 09:45:22;;;;;;;149.50;141.18;;;9.30;99.90;;;;;;12606230;28;20082;-79
2024/01/26 09:51:25;;;;;;;;;;;9.30;99.90;;;;;;12607024;28;20056;-81
2024/01/26 09:57:29;;;;;;;163.98;154.98;;;9.40;99.90;;;;;;12610705;28;19920;-81
2024/01/26 10:03:31;;;;;;;142.23;134.60;;;9.40;99.90;;;;;;12624319;28;20079;-84
2024/01/26 10:09:35;;;;;;;149.48;141.30;;;9.50;99.90;;;;;;12603778;28;20052;-83
2024/01/26 10:15:38;;;;;;;150.75;142.55;;;9.60;99.90;;;;;;12604744;28;20061;-82
2024/01/26 10:21:41;;;;;;;159.45;150.65;;;9.60;99.90;;;;;;12607493;28;20074;-81
2024/01/26 10:27:45;;;;;;;153.20;144.82;;;9.70;99.90;;;;;;12620189;28;20135;-81
2024/01/26 10:33:50;;;;;;;138.00;130.60;;;9.70;99.90;;;;;;12630721;28;20138;-83
2024/01/26 10:39:55;;;;;;;145.13;137.18;;;9.80;99.90;;;;;;12612048;28;20047;-81
2024/01/26 10:45:57;;;;;;;139.23;131.73;;;9.90;99.90;;;;;;12628354;28;20044;-81
2024/01/26 10:52:00;;;;;;;156.15;147.55;;;10.00;99.90;;;;;;12598650;28;20052;-81
2024/01/26 10:58:03;;;;;;;172.10;162.60;;;10.10;99.90;;;;;;12594886;28;20059;-82
2024/01/26 11:04:11;;;;;;;151.85;143.50;;;10.10;99.90;;;;;;12598195;28;20053;-82
2024/01/26 11:10:25;;;;;;;163.77;154.50;;;10.20;99.90;;;;;;12617045;28;20045;-82
2024/01/26 11:16:42;;;;;;;181.07;170.90;;;10.20;99.90;;;;;;12592416;28;20416;-82
2024/01/26 11:22:44;;;;;;;175.52;165.77;;;10.20;99.90;;;;;;12594273;28;20313;-83
2024/01/26 11:28:47;;;;;;;156.10;147.38;;;10.30;99.90;;;;;;12622892;28;20442;-82
2024/01/26 11:35:05;;;;;;;226.45;213.70;;;10.40;99.90;;;;;;12610038;28;20059;-82
2024/01/26 11:41:10;;;;;;;395.48;371.23;;;10.50;99.90;;;;;;12618399;28;20055;-84
2024/01/26 11:47:13;;;;;;;635.03;593.10;;;9.50;99.90;;;;;;12613083;28;20070;-88
2024/01/26 11:53:17;;;;;;;401.52;376.73;;;8.80;99.90;;;;;;12652631;28;20036;-87
2024/01/26 11:59:21;;;;;;;181.55;169.40;;;8.50;99.90;;;;;;12638361;28;20044;-87
2024/01/26 12:05:23;;;;;;;180.03;168.23;;;8.40;99.90;;;;;;12628975;28;20123;-89
2024/01/26 12:11:26;;;;;;;157.00;146.98;;;8.30;99.90;;;;;;12620435;28;20040;-82
2024/01/26 12:17:28;;;;;;;124.75;117.03;;;8.20;99.90;;;;;;12643117;28;20102;-86
2024/01/26 12:23:33;;;;;;;118.82;111.68;;;8.30;99.90;;;;;;12626635;28;20052;-85
2024/01/26 12:29:35;;;;;;;104.20;97.57;;;8.40;99.90;;;;;;12623922;28;20060;-84
2024/01/26 12:35:40;;;;;;;98.65;92.22;;;8.40;99.90;;;;;;12619420;28;20057;-84
2024/01/26 12:41:42;;;;;;;93.78;87.50;;;8.40;99.90;;;;;;12669364;28;20032;-86
2024/01/26 12:47:44;;;;;;;94.20;87.68;;;8.30;99.90;;;;;;12650047;28;20048;-85
2024/01/26 12:53:47;;;;;;;93.93;87.70;;;8.30;99.90;;;;;;12605242;28;20041;-84
2024/01/26 12:59:49;;;;;;;89.07;83.15;;;8.50;99.90;;;;;;12507591;28;20425;-86
2024/01/26 13:05:52;;;;;;;82.55;77.20;;;8.50;99.90;;;;;;12509506;28;20053;-85
2024/01/26 13:11:56;;;;;;;92.10;86.20;;;8.50;99.90;;;;;;12524779;28;20049;-85
2024/01/26 13:18:00;;;;;;;74.95;70.45;;;8.40;99.90;;;;;;12515205;28;20412;-83
2024/01/26 13:24:03;;;;;;;71.72;67.22;;;8.30;99.90;;;;;;12524203;28;20053;-87
2024/01/26 13:30:06;;;;;;;68.45;64.53;;;8.30;99.90;;;;;;12509332;28;20136;-87
2024/01/26 13:36:08;;;;;;;72.68;68.63;;;8.20;99.90;;;;;;12528311;28;20049;-84
2024/01/26 13:42:10;;;;;;;76.55;72.07;;;8.10;99.90;;;;;;12515034;28;20372;-85
2024/01/26 13:48:12;;;;;;;81.82;76.90;;;8.10;99.90;;;;;;12521287;28;20054;-83
2024/01/26 13:54:14;;;;;;;71.18;66.90;;;8.00;99.90;;;;;;12592213;28;20059;-87
2024/01/26 14:00:18;;;;;;;79.07;74.47;;;7.90;99.90;;;;;;12630248;28;20116;-84
2024/01/26 14:06:23;;;;;;;83.13;78.00;;;7.90;99.90;;;;;;12616355;28;20061;-85
2024/01/26 14:12:26;;;;;;;92.35;87.13;;;7.80;99.90;;;;;;12613049;28;20055;-84
2024/01/26 14:18:28;;;;;;;76.45;72.05;;;7.70;99.90;;;;;;12605146;28;20044;-86
2024/01/26 14:24:30;;;;;;;91.22;85.22;;;7.70;99.90;;;;;;12633173;28;20060;-86
2024/01/26 14:30:32;;;;;;;99.05;92.47;;;7.40;99.90;;;;;;12630055;28;20500;-85
2024/01/26 14:36:34;;;;;;;89.53;84.03;;;7.10;99.90;;;;;;12618402;28;20048;-85
2024/01/26 14:42:36;;;;;;;86.05;80.78;;;7.10;99.90;;;;;;12634893;28;20052;-86
2024/01/26 14:48:38;;;;;;;84.50;79.60;;;7.20;99.90;;;;;;12596427;28;20045;-83
2024/01/26 14:54:41;;;;;;;91.13;84.95;;;7.20;99.90;;;;;;12630703;28;20412;-84
2024/01/26 15:00:43;;;;;;;101.00;94.82;;;7.10;99.90;;;;;;12626033;28;20067;-84
2024/01/26 15:06:45;;;;;;;96.28;90.20;;;7.00;99.90;;;;;;12628546;28;20029;-87
2024/01/26 15:12:47;;;;;;;103.88;97.03;;;6.90;99.90;;;;;;12654664;28;20314;-84
2024/01/26 15:18:49;;;;;;;107.40;100.07;;;6.80;99.90;;;;;;12596338;28;20057;-85
2024/01/26 15:24:51;;;;;;;97.93;90.93;;;6.60;99.90;;;;;;12633454;28;20523;-87
2024/01/26 15:30:53;;;;;;;110.00;102.25;;;6.70;99.90;;;;;;12615264;28;20044;-85
2024/01/26 15:36:56;;;;;;;131.70;122.82;;;6.60;99.90;;;;;;12629885;28;20060;-86
2024/01/26 15:42:58;;;;;;;100.63;93.82;;;6.50;99.90;;;;;;12620390;28;20071;-83
2024/01/26 15:48:59;;;;;;;97.53;90.38;;;6.50;99.90;;;;;;12613308;28;20515;-85
2024/01/26 15:55:02;;;;;;;103.85;95.97;;;6.50;99.90;;;;;;12622383;28;20135;-85
2024/01/26 16:01:04;;;;;;;88.43;81.68;;;6.50;99.90;;;;;;12604607;28;20052;-84
2024/01/26 16:07:09;;;;;;;104.43;96.32;;;6.40;99.90;;;;;;12639849;28;20145;-85
2024/01/26 16:13:12;;;;;;;100.05;92.93;;;6.40;99.90;;;;;;12645355;28;20075;-84
2024/01/26 16:19:14;;;;;;;115.10;106.65;;;6.40;99.90;;;;;;12620336;28;20152;-84
2024/01/26 16:25:16;;;;;;;96.22;89.00;;;6.40;99.90;;;;;;12623617;28;20059;-84
2024/01/26 16:31:18;;;;;;;100.32;92.85;;;6.40;99.90;;;;;;12631677;28;20048;-85
2024/01/26 16:37:20;;;;;;;99.57;91.97;;;6.40;99.90;;;;;;12611078;28;20529;-84
2024/01/26 16:43:22;;;;;;;92.82;85.43;;;6.30;99.90;;;;;;12596629;28;20105;-84
2024/01/26 16:49:24;;;;;;;96.47;89.18;;;6.30;99.90;;;;;;12591212;28;20464;-86
2024/01/26 16:55:26;;;;;;;95.90;88.93;;;6.30;99.90;;;;;;12602729;28;20048;-84
2024/01/26 17:01:31;;;;;;;104.75;97.38;;;6.30;99.90;;;;;;12592253;28;20044;-85
2024/01/26 17:07:35;;;;;;;92.82;86.40;;;6.20;99.90;;;;;;12630919;28;20056;-85
2024/01/26 17:13:37;;;;;;;94.38;88.05;;;6.30;99.90;;;;;;12612223;28;20099;-85
2024/01/26 17:19:40;;;;;;;86.60;80.97;;;6.20;99.90;;;;;;12596715;28;20075;-86
2024/01/26 17:25:42;;;;;;;87.03;81.55;;;6.20;99.90;;;;;;12595861;28;20076;-85
2024/01/26 17:31:44;;;;;;;84.30;79.20;;;6.20;99.90;;;;;;12599636;28;20079;-86
2024/01/26 17:37:46;;;;;;;86.55;81.03;;;6.30;99.90;;;;;;12624038;28;20400;-85
2024/01/26 17:43:48;;;;;;;88.93;83.40;;;6.30;99.90;;;;;;12626095;28;20056;-85
2024/01/26 17:49:50;;;;;;;77.40;72.57;;;6.30;99.90;;;;;;12611445;28;20067;-85
2024/01/26 17:55:52;;;;;;;78.57;73.78;;;6.40;99.90;;;;;;12609824;28;20095;-85
2024/01/26 18:01:54;;;;;;;88.22;82.53;;;6.30;99.90;;;;;;12599493;28;20056;-86
2024/01/26 18:07:56;;;;;;;90.88;84.90;;;6.30;99.90;;;;;;12598435;28;20048;-85
2024/01/26 18:13:57;;;;;;;89.05;83.25;;;6.30;99.90;;;;;;12592498;28;20048;-84
2024/01/26 18:20:00;;;;;;;88.40;82.43;;;6.30;99.90;;;;;;12613393;28;20424;-86
2024/01/26 18:26:02;;;;;;;89.45;82.97;;;6.30;99.90;;;;;;12607839;28;20053;-84
2024/01/26 18:32:04;;;;;;;92.43;86.13;;;6.30;99.90;;;;;;12610051;28;20120;-83
2024/01/26 18:38:06;;;;;;;90.22;84.43;;;6.30;99.90;;;;;;12608983;28;20138;-84
2024/01/26 18:44:08;;;;;;;85.95;80.22;;;6.20;99.90;;;;;;12619468;28;20059;-84
2024/01/26 18:50:10;;;;;;;93.10;86.78;;;6.30;99.90;;;;;;12593491;28;20056;-84
2024/01/26 18:56:12;;;;;;;95.20;88.90;;;6.30;99.90;;;;;;12612415;28;20056;-85
2024/01/26 19:02:14;;;;;;;90.45;84.50;;;6.20;99.90;;;;;;12622004;28;20059;-84
2024/01/26 19:08:17;;;;;;;101.45;94.38;;;6.20;99.90;;;;;;12606127;28;20060;-84
2024/01/26 19:14:19;;;;;;;94.65;88.00;;;6.10;99.90;;;;;;12623717;28;20056;-83
2024/01/26 19:20:21;;;;;;;85.38;80.32;;;6.20;99.90;;;;;;12631277;28;20048;-84
2024/01/26 19:26:23;;;;;;;93.10;87.18;;;6.10;99.90;;;;;;12633746;28;20059;-84
2024/01/26 19:32:26;;;;;;;96.15;89.78;;;6.10;99.90;;;;;;12618158;28;20496;-83
2024/01/26 19:38:28;;;;;;;93.60;87.18;;;6.10;99.90;;;;;;12618164;28;20058;-82
2024/01/26 19:44:30;;;;;;;92.13;86.32;;;6.10;99.90;;;;;;12632158;28;20074;-86
2024/01/26 19:50:35;;;;;;;93.55;87.63;;;5.90;99.90;;;;;;12630367;28;20041;-83
2024/01/26 19:56:39;;;;;;;95.20;89.00;;;5.90;99.90;;;;;;12666342;28;20121;-80
2024/01/26 20:02:41;;;;;;;99.23;93.23;;;5.90;99.90;;;;;;12673385;28;20053;-85
2024/01/26 20:08:43;;;;;;;94.28;88.50;;;5.80;99.90;;;;;;12676951;28;20075;-81
2024/01/26 20:14:45;;;;;;;93.07;86.97;;;5.80;99.90;;;;;;12643355;28;20048;-83
2024/01/26 20:20:48;;;;;;;88.65;82.68;;;5.70;99.90;;;;;;12649504;28;20054;-79
2024/01/26 20:26:50;;;;;;;93.82;87.28;;;5.60;99.90;;;;;;12677843;28;20036;-82
2024/01/26 20:32:52;;;;;;;94.60;88.68;;;5.60;99.90;;;;;;12639887;28;20048;-80
2024/01/26 20:38:55;;;;;;;92.68;86.53;;;5.60;99.90;;;;;;12688015;28;20128;-79
2024/01/26 20:44:59;;;;;;;95.88;89.70;;;5.60;99.90;;;;;;12636607;28;20078;-80
2024/01/26 20:51:02;;;;;;;88.90;83.30;;;5.60;99.90;;;;;;12611213;28;20045;-80
2024/01/26 20:57:04;;;;;;;86.55;81.32;;;5.60;99.90;;;;;;12636402;28;20144;-80
2024/01/26 21:03:08;;;;;;;98.20;91.90;;;5.60;99.90;;;;;;12652588;28;20056;-79
2024/01/26 21:09:10;;;;;;;100.28;94.05;;;5.60;99.90;;;;;;12653413;28;20070;-86
2024/01/26 21:15:11;;;;;;;98.30;91.95;;;5.50;99.90;;;;;;12614461;28;20086;-85
2024/01/26 21:21:13;;;;;;;91.80;86.07;;;5.60;99.90;;;;;;12604979;28;20135;-83
2024/01/26 21:27:16;;;;;;;96.60;90.53;;;5.60;99.90;;;;;;12622830;28;20048;-86
2024/01/26 21:33:18;;;;;;;92.95;87.10;;;5.60;99.90;;;;;;12617452;28;20059;-86
2024/01/26 21:39:20;;;;;;;91.20;85.10;;;5.50;99.90;;;;;;12611243;28;20137;-83
2024/01/26 21:45:23;;;;;;;99.35;93.35;;;5.60;99.90;;;;;;12601559;28;20052;-84
2024/01/26 21:51:26;;;;;;;105.55;98.32;;;5.60;99.90;;;;;;12595487;28;20128;-84
2024/01/26 21:57:39;;;;;;;113.72;105.88;;;5.60;99.90;;;;;;12607582;28;20059;-85
2024/01/26 22:03:41;;;;;;;101.55;94.78;;;5.60;99.90;;;;;;12603062;28;20048;-84
2024/01/26 22:09:47;;;;;;;102.68;95.38;;;5.60;99.90;;;;;;12599774;28;20067;-85
2024/01/26 22:15:49;;;;;;;103.72;96.85;;;5.50;99.90;;;;;;12590866;28;20075;-85
2024/01/26 22:21:51;;;;;;;108.00;100.70;;;5.50;99.90;;;;;;12619796;28;20087;-81
2024/01/26 22:27:53;;;;;;;110.82;103.40;;;5.50;99.90;;;;;;12608772;28;20048;-82
2024/01/26 22:33:55;;;;;;;107.07;99.97;;;5.40;99.90;;;;;;12596116;28;20052;-82
2024/01/26 22:39:57;;;;;;;110.97;103.38;;;5.40;99.90;;;;;;12603944;28;20143;-81
2024/01/26 22:46:02;;;;;;;108.90;101.78;;;5.40;99.90;;;;;;12622526;28;20063;-81
2024/01/26 22:52:04;;;;;;;;;;;5.40;99.90;;;;;;12588950;28;20048;-81
2024/01/26 22:58:07;;;;;;;109.10;101.78;;;5.30;99.90;;;;;;12619311;28;19975;-81
2024/01/26 23:04:10;;;;;;;116.85;109.00;;;5.20;99.90;;;;;;12607959;28;20076;-83
2024/01/26 23:10:13;;;;;;;113.87;106.70;;;5.10;99.90;;;;;;12599040;28;20176;-81
2024/01/26 23:16:18;;;;;;;111.13;104.25;;;5.00;99.90;;;;;;12589234;28;20325;-80
2024/01/26 23:22:20;;;;;;;116.35;107.90;;;4.90;99.90;;;;;;12621633;28;20052;-80
2024/01/26 23:28:23;;;;;;;114.43;106.45;;;4.80;99.90;;;;;;12601894;28;20080;-84
2024/01/26 23:34:25;;;;;;;114.03;106.57;;;4.80;99.90;;;;;;12599485;28;20131;-85
2024/01/26 23:40:27;;;;;;;112.78;105.30;;;4.70;99.90;;;;;;12620276;28;20056;-86
2024/01/26 23:46:29;;;;;;;118.90;111.00;;;4.70;99.90;;;;;;12583032;28;20048;-85
2024/01/26 23:52:31;;;;;;;115.07;107.78;;;4.60;99.90;;;;;;12590863;28;20127;-85
2024/01/26 23:58:33;;;;;;;126.72;118.43;;;4.50;99.90;;;;;;12605218;28;20507;-82
